Main page
METAR-TAF:

METAR-TAF

Airports :

Ain Beida Airport

Ouargla, Algeria

latitude: 31-55N, longitude: 005-24E, elevation: 141 m

Current weather observation

The report was made 53 minutes ago, at 09:00 UTC
Temperature 9°C
Humidity 53%
Pressure 1023 hPa
Visibility 10 km or more
no clouds below 1500 m and no cumulonimbus

METAR: DAUU 190900Z /////KT CAVOK 09/M00 Q1023

Time: 10:53 (09:53 UTC)

Forecast

The report was made 1 hour and 53 minutes ago, at 08:00 UTC
Forecast valid from 19 at 09 UTC to 19 at 18 UTC
Wind 8 kt from the South
Visibility 10 km or more
no clouds below 1500 m and no cumulonimbus

TAF: DAUU 190800Z 1909/1918 18008KT CAVOK

Weather observations and forecasts of more than 4000 airports (METAR and TAF reports).

The available stations are represented by yellow and red dots on the map.

Hover mouse over dot to see the name of the station.

Then click to see weather observations and forecasts.

To change the map : click on the green buttons with a black cross to zoom in, on the green button with a dash to zoom out, or on the green arrows for adjacent maps.


METAR-TAF: